Terminal Aerodrome Forecast
Issued by NWS

Home | Current Version | Previous Version | Graphics & Text | Print | Product List | Glossary On
Versions: 1 2 3 4 5 6 7 8 9 10 11 12 13 14 15 16 17 18 19 20 21 22 23 24 25 26 27 28 29 30 31 32
000
FTUS43 KLOT 141801 AAA
TAFDPA
TAF AMD
KDPA 141801Z 1418/1518 17008KT 3SM SHRA BR VCTS SCT008 OVC025CB
      TEMPO 1418/1419 2SM TSRA BKN008 OVC012CB
     FM142100 15007KT 4SM -SHRA VCTS BKN015 OVC025CB
     FM150200 20015G23KT 4SM -SHRA VCTS SCT007 OVC020CB
      TEMPO 1506/1508 2SM TSRA OVC015CB
     FM151100 23017G25KT P6SM VCSH OVC015
     FM151300 26020G35KT P6SM BKN012 OVC018
     FM151700 30016G25KT P6SM BKN025=

USA.gov is the U.S. government's official web portal to all federal, state and local government web resources and services.